createdAt,value
2022-10-19T00:01:21.705Z,102702.41
2022-10-19T00:03:53.187Z,102705.22
2022-10-19T00:06:30.672Z,102694.28
2022-10-19T00:09:03.779Z,102699.81
2022-10-19T00:11:33.749Z,102697.84
2022-10-19T00:14:03.474Z,102691.59
2022-10-19T00:16:35.293Z,102688.31
2022-10-19T00:19:06.629Z,102686.03
2022-10-19T00:21:35.574Z,102687.63
2022-10-19T00:24:04.152Z,102691.44
2022-10-19T00:26:32.935Z,102686.88
2022-10-19T00:29:01.566Z,102679.50
2022-10-19T00:31:30.167Z,102682.34
2022-10-19T00:33:59.160Z,102682.78
2022-10-19T00:36:30.664Z,102678.22
2022-10-19T00:39:00.260Z,102673.56
2022-10-19T00:41:31.284Z,102671.84
2022-10-19T00:44:11.622Z,102674.84
2022-10-19T00:46:42.977Z,102677.94
2022-10-19T00:49:15.448Z,102680.50
2022-10-19T00:51:50.891Z,102682.34
2022-10-19T00:54:20.209Z,102679.66
2022-10-19T00:56:52.239Z,102682.22
2022-10-19T00:59:23.368Z,102680.78
2022-10-19T01:01:53.207Z,102684.44
2022-10-19T01:04:23.471Z,102681.63
2022-10-19T01:06:53.813Z,102681.38
2022-10-19T01:09:22.393Z,102675.81
2022-10-19T01:12:09.151Z,102675.97
2022-10-19T01:14:46.693Z,102684.78
2022-10-19T01:17:40.889Z,102678.38
2022-10-19T01:20:28.103Z,102673.69
2022-10-19T01:23:05.582Z,102676.13
2022-10-19T01:25:58.018Z,102675.81
2022-10-19T01:28:44.802Z,102680.22
2022-10-19T01:31:45.257Z,102673.72
2022-10-19T01:34:22.024Z,102672.00
2022-10-19T01:37:09.488Z,102668.56
2022-10-19T01:39:49.887Z,102654.34
2022-10-19T01:42:29.829Z,102673.19
2022-10-19T01:45:13.866Z,102671.56
2022-10-19T01:48:07.800Z,102666.13
2022-10-19T01:50:43.456Z,102669.03
2022-10-19T01:53:13.262Z,102662.13
2022-10-19T01:55:44.984Z,102663.28
2022-10-19T01:58:18.581Z,102666.28
2022-10-19T02:00:52.485Z,102656.09
2022-10-19T02:03:23.247Z,102648.91
2022-10-19T02:05:52.992Z,102647.84
2022-10-19T02:08:37.858Z,102651.59
2022-10-19T02:11:06.476Z,102644.31
2022-10-19T02:13:37.420Z,102640.25
2022-10-19T02:16:09.506Z,102633.41
2022-10-19T02:18:42.413Z,102633.31
2022-10-19T02:21:10.951Z,102630.81
2022-10-19T02:23:39.486Z,102623.47
2022-10-19T02:26:08.542Z,102628.50
2022-10-19T02:28:37.564Z,102626.09
2022-10-19T02:31:06.240Z,102623.47
2022-10-19T02:33:34.755Z,102616.50
2022-10-19T02:36:03.729Z,102617.06
2022-10-19T02:38:32.277Z,102621.47
2022-10-19T02:41:20.822Z,102608.13
2022-10-19T02:44:00.968Z,102610.84
2022-10-19T02:46:52.124Z,102617.47
2022-10-19T02:49:21.429Z,102612.91
2022-10-19T02:52:14.443Z,102601.84
2022-10-19T02:54:44.729Z,102612.06
2022-10-19T02:57:24.645Z,102606.72
2022-10-19T02:59:53.089Z,102611.97
2022-10-19T03:02:21.432Z,102603.72
2022-10-19T03:04:49.829Z,102606.25
2022-10-19T03:07:19.813Z,102614.38
2022-10-19T03:09:48.615Z,102611.66
2022-10-19T03:12:17.183Z,102598.03
2022-10-19T03:14:45.466Z,102609.66
2022-10-19T03:17:13.931Z,102610.28
2022-10-19T03:19:42.287Z,102611.13
2022-10-19T03:22:10.646Z,102618.84
2022-10-19T03:24:39.027Z,102618.94
2022-10-19T03:27:07.414Z,102609.44
2022-10-19T03:29:35.867Z,102606.34
2022-10-19T03:32:05.099Z,102611.91
2022-10-19T03:34:33.511Z,102604.59
2022-10-19T03:37:01.843Z,102605.88
2022-10-19T03:39:30.316Z,102610.59
2022-10-19T03:41:58.621Z,102607.06
2022-10-19T03:44:27.074Z,102612.69
2022-10-19T03:46:55.483Z,102607.75
2022-10-19T03:49:24.606Z,102606.88
2022-10-19T03:51:52.948Z,102605.88
2022-10-19T03:54:23.712Z,102600.91
2022-10-19T03:56:55.581Z,102601.06
2022-10-19T03:59:24.287Z,102610.09
2022-10-19T04:01:52.611Z,102622.22
2022-10-19T04:04:20.991Z,102608.03
2022-10-19T04:06:50.473Z,102611.88
2022-10-19T04:09:20.791Z,102610.34
2022-10-19T04:11:49.893Z,102607.47
2022-10-19T04:14:31.651Z,102613.78
2022-10-19T04:17:02.192Z,102601.88
2022-10-19T04:19:31.214Z,102590.09
2022-10-19T04:21:59.808Z,102605.84
2022-10-19T04:24:28.808Z,102606.19
2022-10-19T04:26:57.258Z,102606.28
2022-10-19T04:29:29.549Z,102603.72
2022-10-19T04:31:59.545Z,102605.09
2022-10-19T04:34:27.951Z,102602.09
2022-10-19T04:36:59.325Z,102599.97
2022-10-19T04:39:27.853Z,102601.44
2022-10-19T04:41:56.209Z,102601.75
2022-10-19T04:46:57.824Z,102598.97
2022-10-19T04:49:26.166Z,102591.03
2022-10-19T04:51:54.506Z,102592.72
2022-10-19T04:54:22.876Z,102590.09
2022-10-19T04:56:51.309Z,102601.06
2022-10-19T04:59:19.783Z,102604.72
2022-10-19T05:01:48.114Z,102602.16
2022-10-19T05:04:16.460Z,102592.63
2022-10-19T05:06:44.835Z,102602.25
2022-10-19T05:09:13.296Z,102595.03
2022-10-19T05:11:41.689Z,102591.69
2022-10-19T05:14:10.262Z,102593.91
2022-10-19T05:16:38.626Z,102599.56
2022-10-19T05:19:07.092Z,102590.22
2022-10-19T05:21:35.392Z,102596.47
2022-10-19T05:24:03.965Z,102602.16
2022-10-19T05:26:32.430Z,102596.78
2022-10-19T05:29:04.690Z,102594.91
2022-10-19T05:31:34.447Z,102588.19
2022-10-19T05:34:04.085Z,102576.41
2022-10-19T05:36:35.424Z,102569.78
2022-10-19T05:39:15.691Z,102573.44
2022-10-19T05:41:45.067Z,102569.34
2022-10-19T05:44:16.539Z,102568.47
2022-10-19T05:46:45.136Z,102578.44
2022-10-19T05:49:14.707Z,102571.47
2022-10-19T05:51:43.736Z,102578.56
2022-10-19T05:54:13.304Z,102570.94
2022-10-19T05:56:42.428Z,102573.00
2022-10-19T05:59:15.688Z,102562.69
2022-10-19T06:01:45.041Z,102560.97
2022-10-19T06:04:14.998Z,102566.88
2022-10-19T06:06:43.636Z,102562.94
2022-10-19T06:09:12.271Z,102558.28
2022-10-19T06:11:42.229Z,102561.78
2022-10-19T06:14:15.384Z,102558.69
2022-10-19T06:16:45.766Z,102548.84
2022-10-19T06:19:14.284Z,102555.59
2022-10-19T06:21:45.831Z,102544.81
2022-10-19T06:24:14.736Z,102552.81
2022-10-19T06:26:43.140Z,102557.34
2022-10-19T06:29:11.569Z,102555.75
2022-10-19T06:31:39.954Z,102551.38
2022-10-19T06:34:09.654Z,102560.69
2022-10-19T06:36:38.425Z,102563.03
2022-10-19T06:39:06.876Z,102559.31
2022-10-19T06:41:35.337Z,102567.50
2022-10-19T06:44:05.762Z,102571.50
2022-10-19T06:46:34.319Z,102572.47
2022-10-19T06:49:03.155Z,102570.84
2022-10-19T06:51:34.946Z,102568.81
2022-10-19T06:54:03.447Z,102565.56
2022-10-19T06:56:32.074Z,102562.38
2022-10-19T06:59:00.556Z,102574.47
2022-10-19T07:01:29.147Z,102567.28
2022-10-19T07:03:57.589Z,102565.44
2022-10-19T07:06:27.753Z,102559.59
2022-10-19T07:08:56.157Z,102560.63
2022-10-19T07:11:24.561Z,102556.72
2022-10-19T07:13:53.333Z,102562.41
2022-10-19T07:16:22.636Z,102575.06
2022-10-19T07:18:52.589Z,102570.25
2022-10-19T07:21:22.768Z,102574.69
2022-10-19T07:23:52.278Z,102578.22
2022-10-19T07:26:27.478Z,102565.31
2022-10-19T07:28:57.505Z,102576.13
2022-10-19T07:31:29.346Z,102577.84
2022-10-19T07:34:00.106Z,102574.50
2022-10-19T07:36:30.578Z,102570.38
2022-10-19T07:39:00.543Z,102564.50
2022-10-19T07:41:28.935Z,102563.69
2022-10-19T07:43:58.029Z,102554.94
2022-10-19T07:46:33.311Z,102562.63
2022-10-19T07:49:01.913Z,102559.44
2022-10-19T07:51:30.715Z,102556.47
2022-10-19T07:53:59.468Z,102552.97
2022-10-19T07:56:28.680Z,102557.94
2022-10-19T07:58:59.620Z,102556.59
2022-10-19T08:01:38.103Z,102545.38
2022-10-19T08:04:49.040Z,102546.81
2022-10-19T08:06:55.716Z,102537.44
2022-10-19T08:09:50.765Z,102545.09
2022-10-19T08:12:15.343Z,102546.09
2022-10-19T08:14:44.070Z,102547.94
2022-10-19T08:17:16.504Z,102548.06
2022-10-19T08:19:45.875Z,102538.84
2022-10-19T08:22:14.260Z,102541.25
2022-10-19T08:24:42.944Z,102526.47
2022-10-19T08:27:12.371Z,102532.88
2022-10-19T08:29:40.816Z,102515.16
2022-10-19T08:32:09.287Z,102518.38
2022-10-19T08:34:37.870Z,102528.16
2022-10-19T08:37:14.756Z,102522.81
2022-10-19T08:39:54.563Z,102503.16
2022-10-19T08:42:41.377Z,102510.31
2022-10-19T08:45:44.859Z,102512.25
2022-10-19T08:48:24.216Z,102501.69
2022-10-19T08:50:53.140Z,102492.88
2022-10-19T08:53:30.500Z,102506.31
2022-10-19T08:56:51.357Z,102504.75
2022-10-19T08:59:42.205Z,102497.19
2022-10-19T09:02:18.318Z,102498.56
2022-10-19T09:05:14.221Z,102498.41
2022-10-19T09:07:45.792Z,102497.94
2022-10-19T09:10:14.694Z,102493.88
2022-10-19T09:13:04.211Z,102496.19
2022-10-19T09:15:44.381Z,102494.09
2022-10-19T09:18:28.304Z,102499.91
2022-10-19T09:21:47.063Z,102501.47
2022-10-19T09:24:29.732Z,102516.91
2022-10-19T09:27:01.851Z,102516.16
2022-10-19T09:29:31.205Z,102513.28
2022-10-19T09:32:01.541Z,102511.72
2022-10-19T09:34:34.622Z,102503.69
2022-10-19T09:37:03.642Z,102500.44
2022-10-19T09:39:32.522Z,102493.31
2022-10-19T09:42:13.172Z,102498.91
2022-10-19T09:44:41.827Z,102493.97
2022-10-19T09:47:33.511Z,102498.72
2022-10-19T09:50:09.175Z,102493.25
2022-10-19T09:52:39.797Z,102485.69
2022-10-19T09:55:14.017Z,102485.16
2022-10-19T09:57:44.266Z,102479.53
2022-10-19T10:00:37.788Z,102476.09
2022-10-19T10:03:07.557Z,102467.25
2022-10-19T10:05:41.178Z,102468.50
2022-10-19T10:08:15.772Z,102472.50
2022-10-19T10:10:54.156Z,102472.66
2022-10-19T10:13:25.602Z,102476.34
2022-10-19T10:16:00.361Z,102474.06
2022-10-19T10:18:29.780Z,102476.66
2022-10-19T10:21:00.384Z,102470.78
2022-10-19T10:23:36.174Z,102467.63
2022-10-19T10:26:15.226Z,102467.13
2022-10-19T10:28:49.245Z,102460.16
2022-10-19T10:31:29.961Z,102465.91
2022-10-19T10:34:12.314Z,102473.06
2022-10-19T10:36:53.917Z,102457.25
2022-10-19T10:39:24.722Z,102466.38
2022-10-19T10:41:53.685Z,102457.81
2022-10-19T10:44:30.677Z,102451.34
2022-10-19T10:47:01.096Z,102451.94
2022-10-19T10:49:36.805Z,102447.19
2022-10-19T10:52:15.550Z,102440.94
2022-10-19T10:55:02.349Z,102448.22
2022-10-19T10:57:37.541Z,102453.31
2022-10-19T11:00:16.728Z,102443.97
2022-10-19T11:02:58.962Z,102447.19
2022-10-19T11:05:39.034Z,102435.34
2022-10-19T11:08:19.990Z,102431.31
2022-10-19T11:11:13.945Z,102427.56
2022-10-19T11:13:56.680Z,102420.44
2022-10-19T11:16:31.304Z,102423.97
2022-10-19T11:19:16.598Z,102413.81
2022-10-19T11:22:33.243Z,102413.69
2022-10-19T11:25:25.032Z,102404.88
2022-10-19T11:28:22.149Z,102386.84
2022-10-19T11:31:13.706Z,102389.69
2022-10-19T11:33:48.786Z,102376.44
2022-10-19T11:36:35.302Z,102368.28
2022-10-19T11:39:25.721Z,102362.44
2022-10-19T11:42:19.296Z,102347.97
2022-10-19T11:44:56.799Z,102357.22
2022-10-19T11:48:01.610Z,102335.72
2022-10-19T11:50:54.065Z,102324.16
2022-10-19T11:53:45.720Z,102309.66
2022-10-19T11:56:39.183Z,102320.09
2022-10-19T11:59:22.278Z,102315.41
2022-10-19T12:02:19.200Z,102307.72
2022-10-19T12:05:11.203Z,102292.88
2022-10-19T12:08:09.772Z,102296.28
2022-10-19T12:10:43.324Z,102296.09
2022-10-19T12:13:44.377Z,102297.63
2022-10-19T12:16:14.392Z,102292.63
2022-10-19T12:18:50.644Z,102298.97
2022-10-19T12:21:31.538Z,102296.22
2022-10-19T12:24:04.744Z,102300.94
2022-10-19T12:26:36.549Z,102285.78
2022-10-19T12:29:29.496Z,102283.06
2022-10-19T12:32:00.882Z,102276.16
2022-10-19T12:34:32.554Z,102271.97
2022-10-19T12:37:12.658Z,102269.91
2022-10-19T12:40:05.624Z,102268.56
2022-10-19T12:42:58.155Z,102265.34
2022-10-19T12:45:34.788Z,102269.13
2022-10-19T12:48:10.991Z,102252.25
2022-10-19T12:51:01.303Z,102242.84
2022-10-19T12:53:39.064Z,102237.00
2022-10-19T12:56:46.559Z,102248.19
2022-10-19T12:59:33.019Z,102247.47
2022-10-19T13:02:18.692Z,102252.63
2022-10-19T13:04:56.863Z,102241.41
2022-10-19T13:07:27.364Z,102242.81
2022-10-19T13:10:02.365Z,102246.50
2022-10-19T13:12:44.149Z,102236.41
2022-10-19T13:15:37.604Z,102235.47
2022-10-19T13:18:14.094Z,102226.81
2022-10-19T13:20:52.704Z,102224.03
2022-10-19T13:23:27.258Z,102219.31
2022-10-19T13:26:45.134Z,102206.53
2022-10-19T13:29:27.721Z,102199.03
2022-10-19T13:32:51.623Z,102192.78
2022-10-19T13:35:33.385Z,102201.56
2022-10-19T13:38:21.071Z,102187.94
2022-10-19T13:40:49.394Z,102179.19
2022-10-19T13:43:25.783Z,102170.25
2022-10-19T13:46:12.238Z,102169.72
2022-10-19T13:49:05.036Z,102164.47
2022-10-19T13:51:55.381Z,102159.81
2022-10-19T13:54:42.970Z,102155.38
2022-10-19T13:57:34.656Z,102158.63
2022-10-19T14:00:14.297Z,102150.72
2022-10-19T14:03:20.515Z,102151.75
2022-10-19T14:06:03.963Z,102148.97
2022-10-19T14:08:55.800Z,102162.53
2022-10-19T14:11:44.293Z,102150.28
2022-10-19T14:14:24.346Z,102154.91
2022-10-19T14:17:01.456Z,102144.69
2022-10-19T14:19:42.680Z,102140.06
2022-10-19T14:22:33.979Z,102147.88
2022-10-19T14:25:21.216Z,102154.22
2022-10-19T14:28:13.913Z,102152.00
2022-10-19T14:30:42.956Z,102145.34
2022-10-19T14:33:17.820Z,102145.25
2022-10-19T14:35:49.923Z,102134.31
2022-10-19T14:38:20.464Z,102138.59
2022-10-19T14:40:49.100Z,102134.84
2022-10-19T14:43:24.701Z,102126.69
2022-10-19T14:46:08.499Z,102117.25
2022-10-19T14:48:45.539Z,102110.56
2022-10-19T14:51:13.892Z,102115.53
2022-10-19T14:54:12.574Z,102105.25
2022-10-19T14:56:46.184Z,102104.69
2022-10-19T14:59:37.164Z,102109.00
2022-10-19T15:02:34.812Z,102104.84
2022-10-19T15:05:05.849Z,102109.63
2022-10-19T15:07:38.879Z,102096.81
2022-10-19T15:10:26.201Z,102100.34
2022-10-19T15:13:02.293Z,102095.31
2022-10-19T15:15:33.666Z,102093.69
2022-10-19T15:18:02.305Z,102083.50
2022-10-19T15:20:39.638Z,102082.06
2022-10-19T15:23:36.773Z,102078.06
2022-10-19T15:26:24.128Z,102073.38
2022-10-19T15:28:54.908Z,102078.34
2022-10-19T15:31:28.952Z,102067.63
2022-10-19T15:33:59.508Z,102069.47
2022-10-19T15:36:30.687Z,102065.69
2022-10-19T15:39:18.269Z,102062.94
2022-10-19T15:41:53.734Z,102048.91
2022-10-19T15:44:39.961Z,102053.25
2022-10-19T15:47:20.218Z,102039.00
2022-10-19T15:49:53.237Z,102044.25
2022-10-19T15:52:24.953Z,102040.34
2022-10-19T15:54:56.013Z,102041.44
2022-10-19T15:57:32.007Z,102034.53
2022-10-19T16:00:13.007Z,102025.25
2022-10-19T16:02:41.577Z,102018.91
2022-10-19T16:05:10.941Z,102009.44
2022-10-19T16:07:40.807Z,102002.72
2022-10-19T16:10:17.472Z,101997.19
2022-10-19T16:12:46.470Z,101995.72
2022-10-19T16:15:22.111Z,101980.50
2022-10-19T16:17:57.347Z,101990.19
2022-10-19T16:20:28.283Z,101998.31
2022-10-19T16:22:57.492Z,101996.66
2022-10-19T16:25:26.178Z,101999.38
2022-10-19T16:27:54.835Z,101995.38
2022-10-19T16:30:23.260Z,101989.31
2022-10-19T16:32:52.747Z,101983.22
2022-10-19T16:35:21.290Z,101982.31
2022-10-19T16:37:49.828Z,101969.81
2022-10-19T16:40:18.123Z,101968.75
2022-10-19T16:42:46.802Z,101964.78
2022-10-19T16:45:15.407Z,101967.97
2022-10-19T16:47:44.035Z,101948.53
2022-10-19T16:50:12.422Z,101949.91
2022-10-19T16:52:40.861Z,101948.44
2022-10-19T16:55:09.690Z,101939.50
2022-10-19T16:57:38.285Z,101947.97
2022-10-19T17:00:09.409Z,101956.69
2022-10-19T17:02:41.841Z,101955.38
2022-10-19T17:05:12.859Z,101955.19
2022-10-19T17:07:41.242Z,101948.72
2022-10-19T17:10:10.112Z,101949.78
2022-10-19T17:12:41.702Z,101947.06
2022-10-19T17:15:40.886Z,101934.00
2022-10-19T17:17:59.495Z,101932.47
2022-10-19T17:20:27.981Z,101935.88
2022-10-19T17:22:56.464Z,101928.84
2022-10-19T17:25:25.021Z,101936.66
2022-10-19T17:27:53.557Z,101928.25
2022-10-19T17:30:22.109Z,101928.88
2022-10-19T17:32:50.652Z,101924.47
2022-10-19T17:35:19.039Z,101923.84
2022-10-19T17:37:47.540Z,101918.75
2022-10-19T17:40:16.036Z,101926.34
2022-10-19T17:42:45.852Z,101917.69
2022-10-19T17:45:14.364Z,101913.69
2022-10-19T17:47:43.048Z,101926.22
2022-10-19T17:50:11.560Z,101920.66
2022-10-19T17:52:40.011Z,101919.00
2022-10-19T17:55:13.365Z,101923.03
2022-10-19T17:57:42.073Z,101936.22
2022-10-19T18:00:11.520Z,101938.88
2022-10-19T18:02:40.618Z,101942.50
2022-10-19T18:05:09.480Z,101934.41
2022-10-19T18:07:38.266Z,101932.56
2022-10-19T18:10:06.986Z,101928.97
2022-10-19T18:12:35.586Z,101926.63
2022-10-19T18:15:04.366Z,101913.28
2022-10-19T18:17:32.874Z,101913.50
2022-10-19T18:20:01.485Z,101914.16
2022-10-19T18:22:29.945Z,101899.97
2022-10-19T18:24:58.406Z,101902.31
2022-10-19T18:27:26.978Z,101907.78
2022-10-19T18:29:55.490Z,101917.03
2022-10-19T18:32:23.977Z,101922.72
2022-10-19T18:34:52.400Z,101922.88
2022-10-19T18:37:21.185Z,101910.59
2022-10-19T18:39:49.715Z,101913.28
2022-10-19T18:42:18.795Z,101907.72
2022-10-19T18:44:47.474Z,101900.97
2022-10-19T18:47:16.056Z,101887.25
2022-10-19T18:49:44.852Z,101895.72
2022-10-19T18:52:13.907Z,101884.25
2022-10-19T18:54:42.488Z,101871.06
2022-10-19T18:57:11.339Z,101874.44
2022-10-19T18:59:40.031Z,101879.00
2022-10-19T19:02:17.155Z,101877.34
2022-10-19T19:04:58.849Z,101874.81
2022-10-19T19:07:27.280Z,101863.13
2022-10-19T19:09:56.093Z,101858.09
2022-10-19T19:12:24.646Z,101856.56
2022-10-19T19:14:53.016Z,101846.59
2022-10-19T19:17:21.463Z,101855.38
2022-10-19T19:19:49.912Z,101843.75
2022-10-19T19:22:18.844Z,101845.25
2022-10-19T19:24:49.609Z,101835.09
2022-10-19T19:27:18.300Z,101822.78
2022-10-19T19:29:46.733Z,101815.19
2022-10-19T19:32:16.145Z,101809.28
2022-10-19T19:34:44.547Z,101803.56
2022-10-19T19:37:13.456Z,101802.72
2022-10-19T19:39:42.659Z,101798.00
2022-10-19T19:42:16.381Z,101800.34
2022-10-19T19:44:44.749Z,101793.25
2022-10-19T19:47:13.122Z,101790.22
2022-10-19T19:49:41.520Z,101789.22
2022-10-19T19:52:09.854Z,101780.75
2022-10-19T19:54:38.355Z,101780.59
2022-10-19T19:57:07.797Z,101777.72
2022-10-19T19:59:36.164Z,101765.22
2022-10-19T20:02:06.335Z,101768.44
2022-10-19T20:04:34.850Z,101761.38
2022-10-19T20:07:03.448Z,101756.50
2022-10-19T20:09:32.170Z,101743.16
2022-10-19T20:12:00.604Z,101741.78
2022-10-19T20:14:29.040Z,101736.88
2022-10-19T20:16:57.388Z,101744.81
2022-10-19T20:19:25.870Z,101741.63
2022-10-19T20:21:56.324Z,101734.53
2022-10-19T20:24:28.248Z,101739.59
2022-10-19T20:26:57.082Z,101735.03
2022-10-19T20:29:25.473Z,101738.25
2022-10-19T20:31:53.920Z,101735.38
2022-10-19T20:34:24.043Z,101729.97
2022-10-19T20:36:52.565Z,101727.09
2022-10-19T20:39:20.982Z,101730.31
2022-10-19T20:41:49.408Z,101741.28
2022-10-19T20:44:17.887Z,101739.59
2022-10-19T20:46:48.975Z,101730.66
2022-10-19T20:49:17.561Z,101726.75
2022-10-19T20:51:47.877Z,101727.78
2022-10-19T20:54:16.655Z,101721.88
2022-10-19T20:56:45.045Z,101722.41
2022-10-19T20:59:19.844Z,101718.00
2022-10-19T21:01:53.413Z,101715.66
2022-10-19T21:04:22.687Z,101715.13
2022-10-19T21:06:52.056Z,101718.31
2022-10-19T21:09:23.348Z,101715.13
2022-10-19T21:11:52.187Z,101722.06
2022-10-19T21:14:31.306Z,101711.59
2022-10-19T21:17:00.539Z,101711.75
2022-10-19T21:19:32.877Z,101713.25
2022-10-19T21:22:02.466Z,101711.59
2022-10-19T21:24:33.966Z,101704.00
2022-10-19T21:27:05.061Z,101699.94
2022-10-19T21:29:34.067Z,101697.06
2022-10-19T21:32:02.863Z,101690.50
2022-10-19T21:34:35.304Z,101683.06
2022-10-19T21:37:04.003Z,101694.38
2022-10-19T21:39:32.669Z,101688.97
2022-10-19T21:42:01.145Z,101690.63
2022-10-19T21:44:29.519Z,101692.84
2022-10-19T21:46:59.063Z,101686.44
2022-10-19T21:49:27.385Z,101679.19
2022-10-19T21:51:55.789Z,101668.72
2022-10-19T21:54:25.858Z,101666.53
2022-10-19T21:56:55.829Z,101667.06
2022-10-19T21:59:24.753Z,101657.09
2022-10-19T22:01:55.196Z,101664.19
2022-10-19T22:04:23.810Z,101660.97
2022-10-19T22:06:53.178Z,101653.38
2022-10-19T22:09:22.617Z,101655.22
2022-10-19T22:11:50.996Z,101656.06
2022-10-19T22:14:20.893Z,101654.72
2022-10-19T22:16:50.298Z,101643.09
2022-10-19T22:19:18.628Z,101638.00
2022-10-19T22:21:47.042Z,101628.56
2022-10-19T22:24:15.497Z,101628.56
2022-10-19T22:26:50.538Z,101629.41
2022-10-19T22:29:18.989Z,101624.75
2022-10-19T22:31:47.371Z,101617.69
2022-10-19T22:34:16.952Z,101622.78
2022-10-19T22:36:45.635Z,101615.72
2022-10-19T22:39:14.778Z,101610.47
2022-10-19T22:42:29.424Z,101617.13
2022-10-19T22:44:57.762Z,101604.88
2022-10-19T22:47:26.121Z,101601.03
2022-10-19T22:49:54.594Z,101603.78
2022-10-19T22:52:22.960Z,101585.03
2022-10-19T22:54:51.492Z,101584.06
2022-10-19T22:57:19.868Z,101580.13
2022-10-19T22:59:48.239Z,101575.03
2022-10-19T23:02:16.646Z,101576.88
2022-10-19T23:04:45.153Z,101582.31
2022-10-19T23:07:13.654Z,101570.84
2022-10-19T23:09:42.148Z,101568.63
2022-10-19T23:12:10.509Z,101560.16
2022-10-19T23:14:38.842Z,101554.63
2022-10-19T23:17:07.187Z,101555.59
2022-10-19T23:19:35.541Z,101559.66
2022-10-19T23:22:03.979Z,101569.06
2022-10-19T23:24:32.352Z,101560.28
2022-10-19T23:27:00.781Z,101568.91
2022-10-19T23:29:29.167Z,101571.22
2022-10-19T23:31:57.497Z,101560.50
2022-10-19T23:34:25.879Z,101555.91
2022-10-19T23:36:54.437Z,101563.84
2022-10-19T23:39:23.007Z,101558.75
2022-10-19T23:41:51.411Z,101552.88
2022-10-19T23:44:19.771Z,101547.13
2022-10-19T23:46:48.131Z,101541.84
2022-10-19T23:49:16.470Z,101527.63
2022-10-19T23:51:44.873Z,101528.16
2022-10-19T23:54:13.215Z,101524.94
2022-10-19T23:56:41.586Z,101514.13
2022-10-19T23:59:09.922Z,101520.06
